Time;durP1;ratioP1;P1;durP2;ratioP2;P2;SDS_P1;SDS_P2;PMS_P1;PMS_P2;Temp;Humidity;BMP_temperature;BMP_pressure;BME280_temperature;BME280_humidity;BME280_pressure;Samples;Min_cycle;Max_cycle;Signal;HPM_P1;HPM_P2
2022/05/20 00:00:23;;;;;;;17.15;13.02;;;13.20;99.90;;;;;;6154931;23;20032;-86
2022/05/20 00:02:49;;;;;;;18.70;10.40;;;13.20;99.90;;;;;;6128856;23;20017;-85
2022/05/20 00:05:15;;;;;;;14.95;9.45;;;13.20;99.90;;;;;;6128855;23;20018;-85
2022/05/20 00:07:41;;;;;;;15.57;9.13;;;13.20;99.90;;;;;;6128092;23;20021;-85
2022/05/20 00:10:09;;;;;;;15.52;8.82;;;13.20;99.90;;;;;;6155472;23;20014;-85
2022/05/20 00:12:34;;;;;;;15.00;8.68;;;13.10;99.90;;;;;;6129480;23;20022;-85
2022/05/20 00:15:00;;;;;;;14.23;8.90;;;13.10;99.90;;;;;;6154481;23;20017;-85
2022/05/20 00:17:26;;;;;;;15.63;8.60;;;13.10;99.90;;;;;;6155183;23;20093;-85
2022/05/20 00:19:52;;;;;;;13.40;8.07;;;13.10;99.90;;;;;;6154924;23;20029;-85
2022/05/20 00:22:18;;;;;;;13.32;7.93;;;13.10;99.90;;;;;;6128243;23;20047;-85
2022/05/20 00:27:27;;;;;;;;;;;13.10;99.90;;;;;;6129746;23;20021;-85
2022/05/20 00:29:53;;;;;;;14.57;7.72;;;13.00;99.90;;;;;;6154341;23;20272;-85
2022/05/20 00:32:18;;;;;;;15.23;8.25;;;13.00;99.90;;;;;;6155402;23;20045;-85
2022/05/20 00:34:44;;;;;;;13.00;8.48;;;13.00;99.90;;;;;;6127853;23;20100;-85
2022/05/20 00:37:09;;;;;;;14.05;8.73;;;13.10;99.90;;;;;;6128976;23;20083;-85
2022/05/20 00:39:35;;;;;;;14.98;9.07;;;13.00;99.90;;;;;;6155473;23;20133;-85
2022/05/20 00:42:13;;;;;;;15.10;9.00;;;13.10;99.90;;;;;;6154064;23;20026;-85
2022/05/20 00:44:38;;;;;;;15.20;9.10;;;13.00;99.90;;;;;;6155049;23;20013;-85
2022/05/20 00:47:04;;;;;;;13.43;8.70;;;13.10;99.90;;;;;;6129500;23;20319;-85
2022/05/20 00:49:31;;;;;;;13.38;8.13;;;13.00;99.90;;;;;;6154244;23;20009;-85
2022/05/20 00:51:58;;;;;;;13.45;8.43;;;13.00;99.90;;;;;;6154851;23;20072;-85
2022/05/20 00:54:24;;;;;;;14.10;8.10;;;13.00;99.90;;;;;;6155431;23;20052;-85
2022/05/20 00:56:57;;;;;;;15.35;8.70;;;13.00;99.90;;;;;;6154482;23;20326;-85
2022/05/20 00:59:26;;;;;;;13.18;7.85;;;13.00;99.90;;;;;;6155549;23;20018;-85
2022/05/20 01:01:55;;;;;;;14.48;7.63;;;13.00;99.90;;;;;;6128605;23;20398;-85
2022/05/20 01:04:22;;;;;;;13.48;7.40;;;13.00;99.90;;;;;;6153945;23;20442;-85
2022/05/20 01:06:48;;;;;;;11.85;6.97;;;12.90;99.90;;;;;;6128519;23;20076;-85
2022/05/20 01:09:14;;;;;;;13.73;7.35;;;12.90;99.90;;;;;;6128943;23;20014;-85
2022/05/20 01:11:39;;;;;;;13.02;7.55;;;12.90;99.90;;;;;;6127767;23;20457;-85
2022/05/20 01:14:06;;;;;;;11.65;7.45;;;12.90;99.90;;;;;;6129137;23;20046;-85
2022/05/20 01:16:32;;;;;;;12.10;6.72;;;12.90;99.90;;;;;;6129113;23;20084;-85
2022/05/20 01:19:00;;;;;;;12.27;6.47;;;12.90;99.90;;;;;;6156040;23;20281;-85
2022/05/20 01:21:26;;;;;;;12.05;6.45;;;12.90;99.90;;;;;;6156813;23;20017;-85
2022/05/20 01:23:59;;;;;;;11.95;6.50;;;12.90;99.90;;;;;;6130682;23;20045;-85
2022/05/20 01:26:25;;;;;;;11.25;5.95;;;12.90;99.90;;;;;;6156900;23;20078;-85
2022/05/20 01:28:50;;;;;;;11.75;5.97;;;12.90;99.90;;;;;;6156841;23;20013;-85
2022/05/20 01:31:16;;;;;;;10.93;6.07;;;12.80;99.90;;;;;;6129814;23;20029;-85
2022/05/20 01:33:51;;;;;;;11.25;5.97;;;12.80;99.90;;;;;;6156681;23;20108;-85
2022/05/20 01:36:20;;;;;;;10.57;5.88;;;12.70;99.90;;;;;;6156731;23;20088;-85
2022/05/20 01:38:46;;;;;;;10.95;6.57;;;12.70;99.90;;;;;;6128237;23;20389;-85
2022/05/20 01:41:37;;;;;;;12.25;6.50;;;12.70;99.90;;;;;;6157092;23;20020;-85
2022/05/20 01:44:15;;;;;;;12.30;6.25;;;12.70;99.90;;;;;;6129939;23;20025;-85
2022/05/20 01:47:02;;;;;;;11.75;5.95;;;12.70;99.90;;;;;;6155746;23;20013;-85
2022/05/20 01:50:13;;;;;;;12.18;6.88;;;12.60;99.90;;;;;;6130455;23;20105;-85
2022/05/20 01:52:56;;;;;;;12.05;6.65;;;12.60;99.90;;;;;;6076980;23;20018;-85
2022/05/20 01:55:40;;;;;;;12.07;6.88;;;12.60;99.90;;;;;;6156939;23;20021;-85
2022/05/20 01:58:18;;;;;;;12.05;7.22;;;12.70;99.90;;;;;;6156966;23;20022;-85
2022/05/20 02:00:46;;;;;;;12.80;6.90;;;12.70;99.90;;;;;;6129340;23;20076;-85
2022/05/20 02:03:41;;;;;;;13.02;7.50;;;12.60;99.90;;;;;;6128777;23;20059;-85
2022/05/20 02:06:21;;;;;;;13.70;7.03;;;12.60;99.90;;;;;;6106599;23;20025;-85
2022/05/20 02:08:55;;;;;;;12.65;6.57;;;12.60;99.90;;;;;;6129918;23;20013;-85
2022/05/20 02:11:23;;;;;;;11.82;7.10;;;12.60;99.90;;;;;;6130368;23;20072;-85
2022/05/20 02:14:12;;;;;;;14.50;7.20;;;12.70;99.90;;;;;;6129117;23;20320;-85
2022/05/20 02:16:42;;;;;;;13.75;7.10;;;12.60;99.90;;;;;;6156248;23;20029;-85
2022/05/20 02:19:22;;;;;;;13.23;7.13;;;12.70;99.90;;;;;;6156770;23;20022;-85
2022/05/20 02:21:53;;;;;;;14.25;7.57;;;12.70;99.90;;;;;;6129032;23;20032;-85
2022/05/20 02:24:22;;;;;;;13.18;6.88;;;12.60;99.90;;;;;;6130316;23;20397;-85
2022/05/20 02:26:55;;;;;;;12.52;7.00;;;12.70;99.90;;;;;;6129539;23;20017;-85
2022/05/20 02:29:29;;;;;;;12.52;7.40;;;12.70;99.90;;;;;;6129411;23;20025;-85
2022/05/20 02:32:05;;;;;;;12.73;7.05;;;12.60;99.90;;;;;;6129761;23;20025;-85
2022/05/20 02:34:34;;;;;;;14.43;7.20;;;12.60;99.90;;;;;;6155450;23;20009;-85
2022/05/20 02:37:01;;;;;;;12.45;6.80;;;12.60;99.90;;;;;;6129631;23;20067;-84
2022/05/20 02:39:26;;;;;;;13.82;7.28;;;12.60;99.90;;;;;;6130194;23;20084;-85
2022/05/20 02:41:53;;;;;;;15.32;7.70;;;12.50;99.90;;;;;;6128865;23;20524;-85
2022/05/20 02:44:19;;;;;;;15.00;7.63;;;12.50;99.90;;;;;;6156381;23;20014;-84
2022/05/20 02:46:47;;;;;;;15.05;7.60;;;12.40;99.90;;;;;;6129743;23;20509;-84
2022/05/20 02:49:12;;;;;;;12.05;7.25;;;12.40;99.90;;;;;;6155559;23;20025;-85
2022/05/20 02:51:38;;;;;;;13.55;7.65;;;12.30;99.90;;;;;;6156273;23;20017;-84
2022/05/20 02:54:04;;;;;;;15.07;7.18;;;12.30;99.90;;;;;;6156723;23;20014;-85
2022/05/20 02:56:31;;;;;;;16.13;8.10;;;12.80;99.90;;;;;;6155744;23;20021;-85
2022/05/20 03:04:25;;;;;;;13.63;7.25;;;12.10;99.90;;;;;;6129262;23;20026;-85
2022/05/20 03:06:52;;;;;;;13.70;7.90;;;12.20;99.90;;;;;;6129693;23;20022;-85
2022/05/20 03:09:20;;;;;;;14.23;7.75;;;12.10;99.90;;;;;;6130064;23;20017;-84
2022/05/20 03:11:46;;;;;;;14.25;7.60;;;12.20;99.90;;;;;;6155300;23;20044;-85
2022/05/20 03:14:14;;;;;;;13.30;7.70;;;12.10;99.90;;;;;;6155707;23;20025;-85
2022/05/20 03:16:41;;;;;;;14.07;7.85;;;12.00;99.90;;;;;;6128683;23;20088;-85
2022/05/20 03:19:07;;;;;;;16.40;7.63;;;12.00;99.90;;;;;;6129795;23;20435;-84
2022/05/20 03:21:34;;;;;;;14.50;7.65;;;12.00;99.90;;;;;;6129815;23;20021;-84
2022/05/20 03:24:00;;;;;;;13.98;7.10;;;12.00;99.90;;;;;;6128279;23;20489;-84
2022/05/20 03:26:29;;;;;;;14.60;7.93;;;11.90;99.90;;;;;;6156030;23;20334;-84
2022/05/20 03:28:59;;;;;;;13.95;8.10;;;11.90;99.90;;;;;;6155691;23;20021;-85
2022/05/20 03:31:25;;;;;;;14.40;8.20;;;11.90;99.90;;;;;;6154560;23;20442;-84
2022/05/20 03:33:51;;;;;;;12.73;7.15;;;11.90;99.90;;;;;;6129555;23;20457;-84
2022/05/20 03:36:17;;;;;;;12.43;7.20;;;11.90;99.90;;;;;;6129429;23;20021;-85
2022/05/20 03:38:43;;;;;;;14.40;8.00;;;11.90;99.90;;;;;;6154247;23;20021;-85
2022/05/20 03:41:10;;;;;;;14.35;8.00;;;11.90;99.90;;;;;;6129283;23;20028;-85
2022/05/20 03:43:36;;;;;;;12.20;6.85;;;12.00;99.90;;;;;;6129543;23;20450;-85
2022/05/20 03:46:02;;;;;;;14.98;7.75;;;12.00;99.90;;;;;;6154942;23;20029;-85
2022/05/20 03:48:28;;;;;;;16.25;7.35;;;11.90;99.90;;;;;;6156111;23;20026;-85
2022/05/20 03:50:54;;;;;;;12.98;7.35;;;12.00;99.90;;;;;;6154946;23;20335;-85
2022/05/20 03:53:20;;;;;;;15.25;7.40;;;12.00;99.90;;;;;;6154943;23;20021;-85
2022/05/20 03:55:45;;;;;;;13.93;7.90;;;12.10;99.90;;;;;;6155287;23;20069;-85
2022/05/20 03:58:11;;;;;;;16.98;7.90;;;12.10;99.90;;;;;;6129394;23;20021;-85
2022/05/20 04:03:25;;;;;;;16.33;8.23;;;12.10;99.90;;;;;;6155544;23;20025;-85
2022/05/20 04:05:51;;;;;;;15.43;8.10;;;12.20;99.90;;;;;;6127442;23;20458;-85
2022/05/20 04:08:19;;;;;;;16.80;9.13;;;12.10;99.90;;;;;;6129098;23;20024;-85
2022/05/20 04:10:45;;;;;;;17.67;9.38;;;12.10;99.90;;;;;;6128830;23;20018;-85
2022/05/20 04:13:11;;;;;;;15.98;9.32;;;12.10;99.90;;;;;;6154588;23;20017;-85
2022/05/20 04:15:36;;;;;;;16.95;9.07;;;12.20;99.90;;;;;;6129199;23;20021;-85
2022/05/20 04:18:02;;;;;;;16.65;9.13;;;12.20;99.90;;;;;;6154830;23;20024;-85
2022/05/20 04:20:28;;;;;;;16.70;9.43;;;12.20;99.90;;;;;;6128445;23;20028;-85
2022/05/20 04:22:53;;;;;;;18.15;9.25;;;12.40;99.90;;;;;;6128873;23;20623;-85
2022/05/20 04:25:19;;;;;;;15.98;8.63;;;12.40;99.90;;;;;;6155133;23;20014;-85
2022/05/20 04:27:45;;;;;;;16.70;8.75;;;12.40;99.90;;;;;;6127716;23;20021;-84
2022/05/20 04:30:11;;;;;;;14.32;8.23;;;12.50;99.90;;;;;;6155434;23;20024;-85
2022/05/20 04:32:36;;;;;;;15.38;8.60;;;12.40;99.90;;;;;;6154933;23;20513;-85
2022/05/20 04:35:02;;;;;;;15.20;8.75;;;12.50;99.90;;;;;;6154295;23;20053;-85
2022/05/20 04:37:28;;;;;;;15.00;8.60;;;12.50;99.90;;;;;;6155404;23;20024;-85
2022/05/20 04:39:54;;;;;;;16.60;7.80;;;12.50;99.90;;;;;;6128811;23;20025;-85
2022/05/20 04:47:49;;;;;;;12.95;7.00;;;12.50;99.90;;;;;;6128779;23;20017;-85
2022/05/20 04:50:15;;;;;;;15.00;7.47;;;12.60;99.90;;;;;;6153421;23;20055;-85
2022/05/20 04:52:41;;;;;;;13.88;6.65;;;12.70;99.90;;;;;;6154668;23;20040;-85
2022/05/20 04:55:07;;;;;;;14.48;6.80;;;12.70;99.90;;;;;;6128091;23;20461;-85
2022/05/20 04:57:43;;;;;;;13.45;6.00;;;12.70;99.90;;;;;;6129031;23;20072;-84
2022/05/20 05:00:11;;;;;;;11.55;5.00;;;12.80;99.90;;;;;;6128967;23;20018;-85
2022/05/20 05:02:37;;;;;;;14.30;6.47;;;12.80;99.90;;;;;;6128076;23;20342;-85
2022/05/20 05:05:04;;;;;;;11.55;5.78;;;12.80;99.90;;;;;;6128727;23;20017;-85
2022/05/20 05:07:30;;;;;;;14.60;6.25;;;12.80;99.90;;;;;;6154834;23;20025;-84
2022/05/20 05:09:56;;;;;;;12.70;5.60;;;12.80;99.90;;;;;;6127715;23;20447;-84
2022/05/20 05:12:22;;;;;;;12.98;6.20;;;12.80;99.90;;;;;;6154776;23;20017;-85
2022/05/20 05:14:50;;;;;;;13.90;6.00;;;12.80;99.90;;;;;;6128608;23;20020;-85
2022/05/20 05:18:09;;;;;;;11.77;5.50;;;12.80;99.90;;;;;;6128387;23;20027;-85
2022/05/20 05:20:09;;;;;;;13.63;5.72;;;12.80;99.90;;;;;;6131262;23;20033;-85
2022/05/20 05:22:34;;;;;;;14.05;6.35;;;12.80;99.90;;;;;;6154811;23;20032;-84
2022/05/20 05:25:00;;;;;;;14.48;6.15;;;12.80;99.90;;;;;;6127902;23;20346;-84
2022/05/20 05:27:26;;;;;;;13.95;6.32;;;12.80;99.90;;;;;;6128909;23;20105;-84
2022/05/20 05:29:52;;;;;;;12.82;5.95;;;12.90;99.90;;;;;;6128539;23;20013;-84
2022/05/20 05:32:17;;;;;;;11.68;5.70;;;12.90;99.90;;;;;;6154173;23;20021;-85
2022/05/20 05:34:43;;;;;;;12.70;5.85;;;12.90;99.90;;;;;;6128455;23;20040;-85
2022/05/20 05:37:10;;;;;;;11.73;6.03;;;13.00;99.90;;;;;;6128190;23;20017;-84
2022/05/20 05:39:36;;;;;;;12.65;5.82;;;13.10;99.90;;;;;;6155245;23;20021;-85
2022/05/20 05:42:02;;;;;;;15.80;6.22;;;13.10;99.90;;;;;;6154742;23;20092;-84
2022/05/20 05:44:28;;;;;;;12.55;6.03;;;13.10;99.90;;;;;;6154159;23;20458;-85
2022/05/20 05:46:53;;;;;;;13.23;5.72;;;13.20;99.90;;;;;;6154969;23;20132;-84
2022/05/20 05:49:19;;;;;;;11.77;5.75;;;13.30;99.90;;;;;;6128907;23;20021;-85
2022/05/20 05:51:45;;;;;;;13.75;6.10;;;13.30;99.90;;;;;;6153616;23;20017;-84
2022/05/20 05:54:10;;;;;;;10.98;5.90;;;13.40;99.90;;;;;;6155398;23;20356;-90
2022/05/20 05:56:36;;;;;;;14.02;6.47;;;13.40;99.90;;;;;;6128847;23;20017;-92
2022/05/20 05:59:05;;;;;;;16.40;6.53;;;13.40;99.90;;;;;;6127357;23;20435;-91
2022/05/20 06:01:42;;;;;;;13.10;6.60;;;13.40;99.90;;;;;;6128891;23;20105;-89
2022/05/20 06:04:11;;;;;;;14.77;6.47;;;13.30;99.90;;;;;;6156542;23;20025;-90
2022/05/20 06:06:37;;;;;;;12.55;6.70;;;13.20;99.90;;;;;;6130235;23;20029;-87
2022/05/20 06:09:02;;;;;;;16.30;6.65;;;13.40;99.90;;;;;;6157042;23;20093;-88
2022/05/20 06:11:31;;;;;;;13.23;6.55;;;13.40;99.90;;;;;;6156876;23;20072;-94
2022/05/20 06:13:59;;;;;;;12.88;6.68;;;13.20;99.90;;;;;;6156309;23;20334;-87
2022/05/20 06:16:34;;;;;;;14.10;6.90;;;13.80;99.90;;;;;;6161670;23;20049;-90
2022/05/20 06:19:25;;;;;;;13.90;7.22;;;13.30;99.90;;;;;;6156675;23;20036;-88
2022/05/20 06:21:56;;;;;;;12.63;6.78;;;13.40;99.90;;;;;;6130228;23;20079;-88
2022/05/20 06:24:32;;;;;;;12.07;7.10;;;13.10;99.90;;;;;;6158848;23;20049;-89
2022/05/20 06:26:57;;;;;;;13.88;7.25;;;13.10;99.90;;;;;;6128759;23;20121;-88
2022/05/20 06:29:23;;;;;;;14.05;6.88;;;13.70;99.90;;;;;;6156560;23;20045;-87
2022/05/20 06:32:01;;;;;;;13.10;7.55;;;13.40;99.90;;;;;;6130086;23;20021;-88
2022/05/20 06:39:49;;;;;;;14.50;8.10;;;13.60;99.90;;;;;;6155905;23;20017;-89
2022/05/20 06:40:10;;;;;;;15.30;8.35;;;13.80;99.90;;;;;;6129962;23;20018;-88
2022/05/20 06:42:35;;;;;;;15.43;7.95;;;13.90;99.90;;;;;;6155549;23;20028;-88
2022/05/20 06:45:01;;;;;;;14.02;7.70;;;14.10;99.90;;;;;;6129586;23;20291;-88
2022/05/20 06:47:26;;;;;;;17.35;10.57;;;14.30;99.90;;;;;;6129549;23;20077;-88
2022/05/20 06:49:52;;;;;;;15.73;11.15;;;14.90;99.90;;;;;;6128294;23;20152;-87
2022/05/20 06:52:17;;;;;;;17.33;11.02;;;14.50;99.90;;;;;;6129379;23;20021;-88
2022/05/20 06:54:43;;;;;;;16.10;10.13;;;14.70;99.90;;;;;;6128583;23;20020;-89
2022/05/20 06:57:08;;;;;;;16.45;10.05;;;14.70;99.90;;;;;;6129827;23;20091;-87
2022/05/20 06:59:36;;;;;;;15.88;9.82;;;14.70;99.90;;;;;;6156232;23;20023;-88
2022/05/20 07:02:02;;;;;;;16.08;9.88;;;14.80;99.90;;;;;;6155020;23;20059;-88
2022/05/20 07:04:32;;;;;;;14.02;9.00;;;14.90;99.90;;;;;;6129121;23;20088;-89
2022/05/20 07:06:59;;;;;;;14.50;9.32;;;14.80;99.90;;;;;;6154755;23;20088;-88
2022/05/20 07:09:24;;;;;;;16.30;8.60;;;14.80;99.90;;;;;;6128082;23;20450;-88
2022/05/20 07:11:50;;;;;;;14.10;8.85;;;14.90;99.90;;;;;;6129250;23;20018;-91
2022/05/20 07:14:16;;;;;;;15.10;8.27;;;14.90;99.90;;;;;;6155592;23;20014;-90
2022/05/20 07:16:43;;;;;;;16.02;8.63;;;15.00;99.90;;;;;;6128647;23;20017;-91
2022/05/20 07:19:09;;;;;;;15.60;8.95;;;15.10;99.90;;;;;;6157099;23;20084;-90
2022/05/20 07:21:35;;;;;;;14.15;8.38;;;15.10;99.90;;;;;;6156860;23;20084;-90
2022/05/20 07:24:04;;;;;;;13.40;8.57;;;15.10;99.90;;;;;;6128414;23;20111;-91
2022/05/20 07:26:30;;;;;;;12.50;7.15;;;15.20;99.90;;;;;;6162004;23;20036;-90
2022/05/20 07:29:06;;;;;;;14.20;7.38;;;15.30;99.90;;;;;;6158991;23;20025;-90
2022/05/20 07:31:32;;;;;;;13.07;7.18;;;15.50;99.90;;;;;;6154942;23;20061;-88
2022/05/20 07:33:57;;;;;;;15.48;6.93;;;15.70;99.90;;;;;;6129562;23;20021;-91
2022/05/20 07:36:24;;;;;;;11.48;6.57;;;15.70;99.90;;;;;;6155670;23;20025;-89
2022/05/20 07:38:50;;;;;;;12.18;6.63;;;15.80;99.90;;;;;;6128516;23;20025;-86
2022/05/20 07:41:27;;;;;;;12.35;6.28;;;16.40;99.90;;;;;;6156516;23;20069;-91
2022/05/20 07:44:05;;;;;;;13.05;6.88;;;16.00;99.90;;;;;;6128592;23;20021;-90
2022/05/20 07:46:31;;;;;;;12.15;6.20;;;16.40;99.90;;;;;;6130120;23;20017;-89
2022/05/20 07:49:06;;;;;;;15.32;7.20;;;16.50;99.90;;;;;;6155523;23;20033;-89
2022/05/20 07:51:32;;;;;;;12.50;7.00;;;16.80;99.90;;;;;;6129640;23;20021;-90
2022/05/20 07:54:11;;;;;;;11.63;6.18;;;16.40;99.90;;;;;;6156640;23;20096;-95
2022/05/20 07:56:42;;;;;;;12.95;6.88;;;16.30;99.90;;;;;;6131877;23;20020;-87
2022/05/20 07:59:21;;;;;;;12.45;6.22;;;16.40;99.90;;;;;;6159735;23;20061;-88
2022/05/20 08:01:52;;;;;;;13.18;6.20;;;16.50;99.90;;;;;;6138101;23;20060;-90
2022/05/20 08:07:13;;;;;;;11.52;6.25;;;16.70;99.90;;;;;;6154856;23;20025;-89
2022/05/20 08:09:38;;;;;;;13.95;6.50;;;16.80;99.90;;;;;;6155598;23;20025;-90
2022/05/20 08:12:04;;;;;;;10.93;6.30;;;16.80;99.90;;;;;;6128234;23;20025;-87
2022/05/20 08:14:30;;;;;;;12.50;6.10;;;16.90;99.90;;;;;;6156476;23;20093;-90
2022/05/20 08:17:00;;;;;;;10.82;6.10;;;17.00;99.90;;;;;;6158483;23;20017;-91
2022/05/20 08:19:26;;;;;;;12.02;5.90;;;16.90;99.90;;;;;;6130041;23;20404;-91
2022/05/20 08:21:52;;;;;;;13.07;6.00;;;17.10;99.90;;;;;;6129847;23;20017;-89
2022/05/20 08:24:17;;;;;;;12.05;5.97;;;17.10;99.90;;;;;;6155584;23;20014;-87
2022/05/20 08:26:43;;;;;;;11.10;6.18;;;17.20;99.90;;;;;;6154339;23;20505;-88
2022/05/20 08:29:12;;;;;;;10.38;5.97;;;17.20;99.90;;;;;;6129378;23;20067;-87
2022/05/20 08:31:39;;;;;;;12.48;6.00;;;17.30;99.90;;;;;;6155944;23;20021;-87
2022/05/20 08:34:05;;;;;;;12.48;6.20;;;17.50;99.90;;;;;;6128366;23;20025;-87
2022/05/20 08:36:31;;;;;;;12.25;6.47;;;17.60;99.90;;;;;;6128958;23;20017;-87
2022/05/20 08:38:57;;;;;;;13.45;6.20;;;17.70;99.90;;;;;;6128867;23;20104;-87
2022/05/20 08:41:31;;;;;;;10.23;5.38;;;17.90;99.90;;;;;;6128129;23;20041;-87
2022/05/20 08:43:57;;;;;;;11.10;6.25;;;18.20;99.90;;;;;;6155239;23;20414;-86
2022/05/20 08:46:24;;;;;;;12.50;7.70;;;18.20;99.90;;;;;;6129597;23;20013;-86
2022/05/20 08:48:53;;;;;;;11.27;7.60;;;18.30;99.90;;;;;;6154998;23;20024;-87
2022/05/20 08:51:20;;;;;;;12.18;7.30;;;18.30;99.90;;;;;;6129317;23;20521;-88
2022/05/20 08:53:47;;;;;;;12.30;6.80;;;18.40;99.90;;;;;;6129420;23;20013;-89
2022/05/20 08:56:17;;;;;;;10.55;5.88;;;18.60;99.90;;;;;;6128931;23;20022;-88
2022/05/20 08:58:59;;;;;;;12.65;6.00;;;18.70;99.90;;;;;;6129548;23;20100;-88
2022/05/20 09:01:51;;;;;;;10.68;5.07;;;18.90;99.90;;;;;;6128563;23;20568;-89
2022/05/20 09:04:22;;;;;;;10.75;5.22;;;19.00;99.90;;;;;;6126575;23;20033;-88
2022/05/20 09:07:07;;;;;;;11.27;5.93;;;19.00;99.90;;;;;;6128479;23;20450;-88
2022/05/20 09:09:48;;;;;;;10.07;4.85;;;19.20;99.90;;;;;;6154517;23;20017;-88
2022/05/20 09:12:32;;;;;;;10.10;4.97;;;19.20;99.90;;;;;;6155275;23;20025;-88
2022/05/20 09:18:00;;;;;;;10.85;6.00;;;19.40;99.90;;;;;;6154248;23;20021;-87
2022/05/20 09:20:26;;;;;;;11.27;5.53;;;19.40;99.90;;;;;;6129536;23;20400;-90
2022/05/20 09:23:00;;;;;;;10.00;5.30;;;19.40;99.90;;;;;;6153661;23;20048;-89
2022/05/20 09:25:28;;;;;;;10.65;6.00;;;19.60;99.90;;;;;;6155133;23;20017;-88
2022/05/20 09:28:14;;;;;;;11.50;5.53;;;19.70;99.90;;;;;;6128228;23;20021;-88
2022/05/20 09:30:41;;;;;;;10.73;5.82;;;19.50;99.90;;;;;;6153628;23;20022;-86
2022/05/20 09:33:19;;;;;;;10.73;6.07;;;19.50;99.90;;;;;;6129062;23;20473;-85
2022/05/20 09:35:56;;;;;;;11.25;5.90;;;19.60;99.90;;;;;;6155033;23;20025;-88
2022/05/20 09:38:34;;;;;;;11.23;5.88;;;19.70;99.90;;;;;;6128628;23;20439;-88
2022/05/20 09:41:09;;;;;;;10.15;6.10;;;19.90;99.90;;;;;;6129997;23;20022;-92
2022/05/20 09:43:41;;;;;;;11.55;6.72;;;20.00;99.90;;;;;;6156050;23;20419;-86
2022/05/20 09:46:26;;;;;;;10.32;5.85;;;20.40;99.90;;;;;;6130863;23;20028;-90
2022/05/20 09:49:02;;;;;;;11.50;6.65;;;20.20;99.90;;;;;;6130846;23;20024;-86
2022/05/20 09:51:51;;;;;;;11.07;6.80;;;20.20;99.90;;;;;;6129346;23;20020;-88
2022/05/20 09:54:21;;;;;;;11.82;6.55;;;20.50;99.90;;;;;;6130930;23;20013;-85
2022/05/20 09:56:58;;;;;;;9.95;6.00;;;20.30;99.90;;;;;;6155991;23;20092;-87
2022/05/20 09:59:36;;;;;;;10.90;6.40;;;20.30;99.90;;;;;;6129276;23;20028;-85
2022/05/20 10:02:07;;;;;;;11.95;7.13;;;20.40;99.90;;;;;;6130056;23;20021;-86
2022/05/20 10:04:48;;;;;;;11.13;6.22;;;20.50;99.90;;;;;;6155854;23;20092;-86
2022/05/20 10:07:19;;;;;;;11.40;6.32;;;20.40;99.90;;;;;;6130182;23;20018;-86
2022/05/20 10:10:10;;;;;;;10.60;6.10;;;20.50;99.90;;;;;;6156508;23;20021;-85
2022/05/20 10:12:38;;;;;;;10.60;6.15;;;20.60;99.90;;;;;;6155522;23;20018;-83
2022/05/20 10:15:13;;;;;;;9.63;5.93;;;20.60;99.90;;;;;;6130281;23;20021;-87
2022/05/20 10:17:49;;;;;;;10.32;5.82;;;20.70;99.90;;;;;;6155292;23;20014;-85
2022/05/20 10:20:53;;;;;;;12.18;6.15;;;20.60;99.90;;;;;;6128951;23;20021;-84
2022/05/20 10:23:53;;;;;;;9.90;5.93;;;20.50;99.90;;;;;;6129381;23;20025;-84
2022/05/20 10:26:34;;;;;;;10.93;6.20;;;20.60;99.90;;;;;;6154962;23;20342;-84
2022/05/20 10:34:48;;;;;;;10.95;6.60;;;21.00;99.90;;;;;;6158325;23;20021;-86
2022/05/20 10:37:32;;;;;;;10.32;6.53;;;21.10;99.90;;;;;;6130026;23;20100;-88
2022/05/20 10:40:24;;;;;;;10.27;6.50;;;21.30;99.90;;;;;;6155412;23;20048;-86
2022/05/20 10:43:16;;;;;;;11.25;5.97;;;21.40;99.90;;;;;;6130095;23;20013;-87
2022/05/20 10:48:58;;;;;;;10.65;5.00;;;21.10;99.90;;;;;;6129224;23;20022;-87
2022/05/20 10:51:49;;;;;;;8.90;4.83;;;21.20;99.90;;;;;;6130119;23;20018;-88
2022/05/20 10:54:47;;;;;;;9.80;5.53;;;21.10;99.90;;;;;;6155884;23;20087;-82
2022/05/20 10:57:24;;;;;;;9.63;5.20;;;21.00;99.90;;;;;;6116777;23;20013;-85
2022/05/20 11:00:13;;;;;;;10.23;5.32;;;20.90;99.90;;;;;;6128593;23;20052;-86
2022/05/20 11:02:57;;;;;;;9.40;4.60;;;20.90;99.90;;;;;;6154598;23;20053;-84
2022/05/20 11:06:06;;;;;;;11.27;6.03;;;21.10;99.90;;;;;;6129876;23;20021;-86
2022/05/20 11:08:51;;;;;;;9.68;5.95;;;21.30;99.90;;;;;;6128465;23;20511;-87
2022/05/20 11:11:55;;;;;;;11.07;6.28;;;21.50;99.90;;;;;;6129028;23;20025;-85
2022/05/20 11:14:41;;;;;;;11.05;6.70;;;21.50;99.90;;;;;;6156459;23;20096;-86
2022/05/20 11:17:33;;;;;;;11.10;6.38;;;21.50;99.90;;;;;;6136454;23;20045;-86
2022/05/20 11:20:13;;;;;;;12.32;8.60;;;21.60;99.90;;;;;;6153844;23;20318;-85
2022/05/20 11:23:08;;;;;;;12.68;9.68;;;21.50;99.90;;;;;;6154773;23;20017;-85
2022/05/20 11:25:46;;;;;;;12.90;9.57;;;21.70;99.90;;;;;;6154156;23;20113;-85
2022/05/20 11:28:29;;;;;;;12.52;9.07;;;21.70;99.90;;;;;;6156231;23;20060;-85
2022/05/20 11:31:13;;;;;;;15.13;9.80;;;21.70;99.90;;;;;;6152837;23;20026;-85
2022/05/20 11:34:04;;;;;;;11.23;8.10;;;21.80;99.90;;;;;;6153783;23;20450;-86
2022/05/20 11:36:56;;;;;;;15.02;10.68;;;21.80;99.90;;;;;;6154850;23;20017;-86
2022/05/20 11:39:22;;;;;;;14.10;10.43;;;21.80;99.90;;;;;;6156099;23;20020;-85
2022/05/20 11:42:24;;;;;;;15.10;11.73;;;22.00;99.90;;;;;;6133966;23;20018;-86
2022/05/20 11:45:37;;;;;;;13.77;10.68;;;22.20;99.90;;;;;;6123694;23;20040;-86
2022/05/20 11:48:14;;;;;;;14.73;11.02;;;22.50;99.90;;;;;;6124689;23;20093;-87
2022/05/20 11:51:11;;;;;;;14.40;10.80;;;22.40;99.90;;;;;;6122982;23;20018;-87
2022/05/20 11:53:41;;;;;;;14.85;10.10;;;22.60;99.90;;;;;;6126251;23;20054;-87
2022/05/20 11:56:28;;;;;;;14.70;10.35;;;22.90;99.90;;;;;;6124493;23;20020;-87
2022/05/20 11:59:06;;;;;;;15.00;10.80;;;22.80;99.90;;;;;;6123611;23;20014;-87
2022/05/20 12:01:34;;;;;;;12.20;9.05;;;22.60;99.90;;;;;;6124614;23;20021;-86
2022/05/20 12:04:08;;;;;;;13.10;9.82;;;22.80;99.90;;;;;;6124051;23;20533;-86
2022/05/20 12:06:56;;;;;;;14.35;9.63;;;22.80;99.90;;;;;;6124982;23;20018;-87
2022/05/20 12:09:45;;;;;;;13.02;8.68;;;22.90;99.90;;;;;;6126684;23;20084;-87
2022/05/20 12:12:32;;;;;;;12.77;7.95;;;23.20;99.90;;;;;;6123888;23;20026;-87
2022/05/20 12:15:11;;;;;;;13.20;9.10;;;23.50;99.90;;;;;;6126281;23;20010;-87
2022/05/20 12:17:41;;;;;;;13.75;9.57;;;23.20;99.90;;;;;;6124956;23;20028;-86
2022/05/20 12:25:52;;;;;;;12.10;7.00;;;22.80;99.90;;;;;;6124904;23;20522;-86
2022/05/20 12:28:20;;;;;;;11.27;7.10;;;22.80;99.90;;;;;;6125945;23;20458;-85
2022/05/20 12:31:11;;;;;;;10.52;6.07;;;22.90;99.90;;;;;;6125529;23;20046;-85
2022/05/20 12:33:52;;;;;;;10.85;5.88;;;22.90;99.90;;;;;;6123538;23;20029;-85
2022/05/20 12:36:29;;;;;;;11.50;5.78;;;22.80;99.90;;;;;;6126145;23;20018;-85
2022/05/20 12:39:11;;;;;;;10.13;5.28;;;22.70;99.90;;;;;;6125955;23;20339;-88
2022/05/20 12:41:44;;;;;;;11.45;5.32;;;22.70;99.90;;;;;;6123959;23;20010;-84
2022/05/20 12:44:15;;;;;;;11.18;5.38;;;22.60;99.90;;;;;;6124381;23;20494;-85
2022/05/20 12:46:52;;;;;;;10.68;5.10;;;22.60;99.90;;;;;;6125237;23;20010;-85
2022/05/20 12:49:20;;;;;;;10.55;5.68;;;22.70;99.90;;;;;;6126381;23;20022;-85
2022/05/20 12:51:49;;;;;;;9.98;5.35;;;22.50;99.90;;;;;;6125877;23;20155;-85
2022/05/20 12:54:26;;;;;;;9.60;5.22;;;22.40;99.90;;;;;;6123676;23;20028;-85
2022/05/20 12:56:54;;;;;;;9.80;5.50;;;22.20;99.90;;;;;;6124898;23;20641;-85
2022/05/20 12:59:22;;;;;;;10.85;5.75;;;21.90;99.90;;;;;;6125974;23;20014;-85
2022/05/20 13:01:59;;;;;;;10.35;5.35;;;21.90;99.90;;;;;;6122900;23;20022;-84
2022/05/20 13:04:34;;;;;;;10.13;5.25;;;21.80;99.90;;;;;;6124365;23;20100;-85
2022/05/20 13:07:01;;;;;;;10.57;6.10;;;21.70;99.90;;;;;;6123699;23;20022;-85
2022/05/20 13:09:40;;;;;;;10.13;5.57;;;21.70;99.90;;;;;;6124843;23;20021;-84
2022/05/20 13:12:08;;;;;;;12.95;7.70;;;21.70;99.90;;;;;;6126501;23;20438;-85
2022/05/20 13:14:36;;;;;;;14.13;8.18;;;21.50;99.90;;;;;;6125300;23;20021;-84
2022/05/20 13:17:04;;;;;;;12.50;7.72;;;21.40;99.90;;;;;;6127821;23;20092;-85
2022/05/20 13:19:49;;;;;;;12.00;7.35;;;21.30;99.90;;;;;;6125818;23;20018;-89
2022/05/20 13:22:22;;;;;;;11.90;6.80;;;21.10;99.90;;;;;;6125208;23;20021;-87
2022/05/20 13:24:57;;;;;;;11.07;6.88;;;21.00;99.90;;;;;;6127735;23;20045;-85
2022/05/20 13:27:23;;;;;;;11.02;5.53;;;20.60;99.90;;;;;;6126478;23;20013;-85
2022/05/20 13:29:51;;;;;;;9.38;5.10;;;20.40;99.90;;;;;;6124961;23;20061;-85
2022/05/20 13:32:20;;;;;;;10.93;5.03;;;20.20;99.90;;;;;;6127628;23;20458;-85
2022/05/20 13:34:51;;;;;;;10.43;5.00;;;20.00;99.90;;;;;;6127627;23;20021;-86
2022/05/20 13:37:30;;;;;;;9.93;5.20;;;19.90;99.90;;;;;;6126845;23;20090;-86
2022/05/20 13:40:22;;;;;;;10.13;5.28;;;19.80;99.90;;;;;;6126104;23;20014;-87
2022/05/20 13:42:53;;;;;;;9.73;4.93;;;19.70;99.90;;;;;;6124018;23;20063;-87